createdAt,value
2018-09-20T00:00:18.363Z,8.50
2018-09-20T00:02:46.889Z,9.60
2018-09-20T00:05:15.430Z,10.13
2018-09-20T00:07:43.960Z,9.93
2018-09-20T00:10:12.511Z,9.37
2018-09-20T00:12:41.044Z,8.90
2018-09-20T00:15:09.632Z,10.07
2018-09-20T00:17:38.188Z,9.33
2018-09-20T00:20:07.374Z,9.90
2018-09-20T00:22:35.997Z,7.70
2018-09-20T00:25:04.551Z,17.53
2018-09-20T00:27:33.044Z,8.47
2018-09-20T00:30:01.739Z,12.07
2018-09-20T00:32:30.323Z,7.67
2018-09-20T00:34:58.920Z,10.03
2018-09-20T00:37:27.466Z,8.20
2018-09-20T00:39:56.023Z,13.13
2018-09-20T00:42:24.615Z,12.50
2018-09-20T00:44:53.126Z,8.70
2018-09-20T00:47:21.696Z,8.17
2018-09-20T00:49:50.300Z,9.83
2018-09-20T00:52:18.871Z,10.67
2018-09-20T00:54:47.378Z,9.63
2018-09-20T00:57:15.946Z,8.00
2018-09-20T00:59:44.501Z,10.07
2018-09-20T01:02:13.143Z,8.43
2018-09-20T01:04:41.769Z,10.53
2018-09-20T01:07:10.419Z,12.20
2018-09-20T01:09:38.983Z,14.40
2018-09-20T01:12:07.523Z,10.20
2018-09-20T01:14:36.091Z,10.13
2018-09-20T01:17:04.603Z,8.40
2018-09-20T01:19:33.265Z,7.80
2018-09-20T01:22:01.757Z,9.57
2018-09-20T01:25:05.961Z,9.67
2018-09-20T01:27:34.512Z,9.07
2018-09-20T01:30:02.992Z,7.90
2018-09-20T01:32:31.627Z,8.33
2018-09-20T01:35:00.141Z,7.47
2018-09-20T01:37:28.627Z,7.83
2018-09-20T01:39:57.124Z,7.13
2018-09-20T01:42:25.727Z,8.00
2018-09-20T01:44:54.363Z,10.30
2018-09-20T01:47:22.941Z,7.20
2018-09-20T01:49:51.465Z,8.30
2018-09-20T01:52:20.021Z,11.13
2018-09-20T01:54:48.512Z,7.30
2018-09-20T01:57:17.908Z,8.77
2018-09-20T01:59:46.414Z,9.43
2018-09-20T02:02:15.033Z,6.97
2018-09-20T02:04:43.576Z,8.70
2018-09-20T02:07:12.096Z,8.23
2018-09-20T02:09:40.703Z,9.93
2018-09-20T02:12:09.256Z,7.67
2018-09-20T02:14:37.776Z,9.03
2018-09-20T02:17:06.322Z,8.67
2018-09-20T02:19:34.908Z,8.63
2018-09-20T02:22:03.412Z,9.50
2018-09-20T02:24:31.976Z,12.93
2018-09-20T02:27:00.503Z,12.33
2018-09-20T02:29:29.079Z,8.60
2018-09-20T02:31:57.569Z,9.13
2018-09-20T02:34:26.214Z,8.23
2018-09-20T02:37:01.362Z,8.97
2018-09-20T02:39:29.947Z,8.27
2018-09-20T02:41:58.483Z,8.27
2018-09-20T02:44:27.083Z,9.93
2018-09-20T02:46:55.603Z,8.03
2018-09-20T02:49:24.115Z,8.40
2018-09-20T02:51:52.597Z,10.07
2018-09-20T02:54:21.192Z,8.07
2018-09-20T02:56:49.752Z,7.50
2018-09-20T02:59:18.270Z,15.07
2018-09-20T03:01:46.777Z,8.10
2018-09-20T03:04:15.314Z,10.80
2018-09-20T03:06:43.829Z,9.00
2018-09-20T03:09:12.628Z,11.37
2018-09-20T03:11:41.158Z,8.37
2018-09-20T03:14:09.692Z,10.23
2018-09-20T03:16:38.210Z,7.80
2018-09-20T03:19:06.838Z,8.47
2018-09-20T03:21:35.536Z,8.07
2018-09-20T03:24:04.126Z,8.47
2018-09-20T03:26:32.790Z,7.60
2018-09-20T03:29:01.501Z,10.23
2018-09-20T03:31:30.078Z,8.97
2018-09-20T03:33:58.671Z,11.23
2018-09-20T03:36:27.247Z,8.97
2018-09-20T03:38:55.783Z,8.90
2018-09-20T03:41:24.311Z,7.03
2018-09-20T03:43:52.899Z,7.83
2018-09-20T03:46:21.472Z,10.80
2018-09-20T03:48:49.998Z,7.20
2018-09-20T03:51:18.529Z,7.37
2018-09-20T03:53:47.068Z,7.50
2018-09-20T03:56:15.680Z,7.27
2018-09-20T03:58:44.268Z,9.60
2018-09-20T04:01:12.834Z,10.80
2018-09-20T04:03:41.424Z,10.83
2018-09-20T04:06:10.038Z,14.50
2018-09-20T04:08:38.609Z,9.53
2018-09-20T04:11:07.112Z,10.27
2018-09-20T04:13:37.751Z,8.83
2018-09-20T04:16:06.316Z,9.43
2018-09-20T04:18:34.896Z,11.87
2018-09-20T04:21:03.523Z,7.53
2018-09-20T04:23:33.031Z,7.50
2018-09-20T04:26:02.324Z,10.20
2018-09-20T04:28:30.845Z,13.10
2018-09-20T04:30:59.471Z,8.10
2018-09-20T04:33:28.004Z,6.97
2018-09-20T04:35:56.620Z,8.13
2018-09-20T04:38:26.039Z,9.20
2018-09-20T04:40:54.601Z,7.33
2018-09-20T04:43:23.156Z,6.90
2018-09-20T04:45:51.752Z,7.83
2018-09-20T04:48:20.434Z,8.60
2018-09-20T04:50:49.319Z,7.17
2018-09-20T04:53:17.890Z,9.80
2018-09-20T04:55:46.513Z,7.10
2018-09-20T04:58:15.038Z,7.30
2018-09-20T05:00:43.622Z,7.17
2018-09-20T05:03:12.241Z,10.23
2018-09-20T05:05:40.787Z,7.53
2018-09-20T05:08:09.363Z,7.90
2018-09-20T05:10:37.933Z,9.57
2018-09-20T05:13:06.482Z,6.90
2018-09-20T05:15:35.060Z,9.17
2018-09-20T05:18:03.610Z,8.77
2018-09-20T05:20:32.169Z,7.43
2018-09-20T05:23:00.728Z,8.47
2018-09-20T05:25:29.228Z,7.70
2018-09-20T05:27:57.760Z,10.43
2018-09-20T05:30:26.343Z,11.77
2018-09-20T05:32:54.932Z,11.37
2018-09-20T05:35:23.515Z,15.33
2018-09-20T05:37:52.030Z,15.17
2018-09-20T05:40:20.798Z,15.53
2018-09-20T05:42:49.456Z,16.97
2018-09-20T05:45:18.022Z,16.03
2018-09-20T05:47:46.620Z,18.07
2018-09-20T05:50:15.151Z,15.67
2018-09-20T05:52:43.683Z,12.87
2018-09-20T05:55:12.250Z,20.10
2018-09-20T05:57:40.848Z,14.57
2018-09-20T06:00:09.604Z,21.43
2018-09-20T06:02:38.261Z,14.23
2018-09-20T06:05:07.169Z,11.50
2018-09-20T06:07:35.743Z,15.10
2018-09-20T06:10:04.413Z,16.27
2018-09-20T06:12:32.975Z,21.83
2018-09-20T06:15:01.562Z,17.47
2018-09-20T06:17:30.083Z,15.80
2018-09-20T06:19:58.872Z,12.57
2018-09-20T06:22:27.388Z,17.33
2018-09-20T06:24:55.958Z,16.10
2018-09-20T06:27:25.555Z,14.13
2018-09-20T06:29:54.194Z,23.03
2018-09-20T06:32:22.863Z,12.53
2018-09-20T06:34:51.431Z,15.63
2018-09-20T06:37:20.084Z,18.63
2018-09-20T06:39:48.675Z,28.13
2018-09-20T06:42:17.315Z,26.10
2018-09-20T06:44:45.872Z,33.80
2018-09-20T06:47:14.405Z,17.00
2018-09-20T06:49:42.938Z,18.20
2018-09-20T06:52:11.548Z,25.37
2018-09-20T06:54:40.090Z,21.10
2018-09-20T06:57:08.638Z,15.50
2018-09-20T06:59:37.159Z,18.83
2018-09-20T07:02:05.695Z,15.33
2018-09-20T07:04:34.199Z,13.53
2018-09-20T07:07:02.835Z,13.03
2018-09-20T07:09:31.443Z,19.03
2018-09-20T07:11:59.996Z,14.53
2018-09-20T07:14:28.617Z,18.10
2018-09-20T07:16:57.258Z,13.53
2018-09-20T07:19:25.869Z,12.40
2018-09-20T07:21:54.497Z,13.17
2018-09-20T07:24:23.116Z,11.77
2018-09-20T07:26:51.687Z,14.07
2018-09-20T07:29:20.341Z,15.33
2018-09-20T07:31:48.840Z,14.47
2018-09-20T07:34:17.319Z,18.00
2018-09-20T07:36:45.815Z,15.60
2018-09-20T07:39:14.350Z,16.90
2018-09-20T07:41:42.831Z,13.23
2018-09-20T07:44:11.320Z,10.30
2018-09-20T07:46:39.804Z,12.63
2018-09-20T07:49:08.300Z,11.93
2018-09-20T07:51:36.783Z,12.07
2018-09-20T07:54:05.264Z,18.50
2018-09-20T07:56:33.801Z,16.57
2018-09-20T07:59:02.354Z,14.43
2018-09-20T08:01:30.848Z,13.03
2018-09-20T08:03:59.340Z,13.40
2018-09-20T08:06:27.840Z,12.23
2018-09-20T08:08:56.346Z,11.90
2018-09-20T08:11:24.879Z,12.63
2018-09-20T08:13:53.384Z,13.43
2018-09-20T08:16:21.867Z,12.60
2018-09-20T08:18:50.346Z,10.60
2018-09-20T08:21:18.863Z,12.23
2018-09-20T08:23:47.595Z,11.93
2018-09-20T08:26:16.187Z,12.63
2018-09-20T08:28:44.771Z,10.87
2018-09-20T08:31:13.252Z,11.23
2018-09-20T08:33:41.722Z,13.20
2018-09-20T08:36:10.194Z,10.03
2018-09-20T08:38:38.657Z,9.90
2018-09-20T08:41:07.239Z,10.77
2018-09-20T08:43:35.726Z,18.13
2018-09-20T08:46:04.189Z,12.63
2018-09-20T08:48:32.708Z,10.20
2018-09-20T08:51:01.333Z,12.13
2018-09-20T08:53:29.733Z,14.60
2018-09-20T08:55:58.248Z,9.63
2018-09-20T08:58:26.784Z,15.50
2018-09-20T09:00:55.253Z,9.73
2018-09-20T09:03:23.721Z,9.67
2018-09-20T09:05:52.197Z,12.83
2018-09-20T09:08:20.669Z,10.40
2018-09-20T09:10:49.150Z,9.20
2018-09-20T09:13:17.621Z,9.57
2018-09-20T09:15:46.111Z,9.03
2018-09-20T09:18:14.583Z,9.80
2018-09-20T09:20:43.138Z,10.83
2018-09-20T09:23:11.606Z,9.53
2018-09-20T09:25:40.073Z,17.90
2018-09-20T09:28:08.920Z,8.40
2018-09-20T09:30:37.551Z,11.20
2018-09-20T09:33:06.047Z,9.27
2018-09-20T09:35:34.564Z,8.73
2018-09-20T09:38:03.045Z,8.70
2018-09-20T09:40:31.539Z,9.20
2018-09-20T09:43:00.052Z,12.73
2018-09-20T09:45:28.564Z,9.37
2018-09-20T09:47:57.110Z,8.43
2018-09-20T09:50:25.579Z,10.00
2018-09-20T09:52:54.152Z,10.10
2018-09-20T09:55:22.622Z,8.80
2018-09-20T09:57:53.459Z,9.60
2018-09-20T10:00:27.287Z,9.97
2018-09-20T10:02:56.964Z,9.97
2018-09-20T10:05:25.457Z,9.33
2018-09-20T10:07:54.168Z,10.37
2018-09-20T10:10:22.651Z,10.47
2018-09-20T10:12:51.126Z,10.87
2018-09-20T10:15:19.881Z,8.57
2018-09-20T10:17:48.416Z,14.93
2018-09-20T10:20:17.520Z,29.50
2018-09-20T10:22:46.053Z,34.07
2018-09-20T10:25:14.568Z,24.97
2018-09-20T10:27:43.077Z,18.03
2018-09-20T10:30:11.611Z,20.57
2018-09-20T10:32:40.095Z,12.87
2018-09-20T10:35:08.621Z,22.80
2018-09-20T10:37:37.119Z,16.73
2018-09-20T10:40:05.938Z,21.87
2018-09-20T10:42:34.444Z,16.77
2018-09-20T10:45:02.930Z,11.90
2018-09-20T10:47:31.406Z,11.63
2018-09-20T10:49:59.882Z,11.50
2018-09-20T10:52:28.376Z,17.70
2018-09-20T10:54:56.854Z,12.87
2018-09-20T10:57:25.351Z,15.67
2018-09-20T10:59:53.868Z,12.17
2018-09-20T11:02:22.347Z,14.80
2018-09-20T11:04:50.842Z,14.23
2018-09-20T11:07:19.455Z,14.33
2018-09-20T11:09:47.931Z,13.00
2018-09-20T11:12:16.425Z,12.90
2018-09-20T11:14:44.918Z,13.20
2018-09-20T11:17:13.389Z,10.93
2018-09-20T11:19:41.907Z,13.67
2018-09-20T11:22:10.424Z,11.90
2018-09-20T11:24:38.920Z,9.77
2018-09-20T11:27:07.407Z,11.50
2018-09-20T11:29:35.905Z,15.67
2018-09-20T11:32:04.390Z,14.43
2018-09-20T11:34:32.872Z,10.83
2018-09-20T11:37:01.379Z,11.73
2018-09-20T11:39:29.853Z,8.90
2018-09-20T11:41:58.331Z,12.83
2018-09-20T11:44:26.813Z,8.77
2018-09-20T11:46:55.422Z,11.67
2018-09-20T11:49:22.856Z,11.53
2018-09-20T11:51:51.338Z,10.30
2018-09-20T11:54:18.790Z,11.33
2018-09-20T11:56:46.246Z,14.00
2018-09-20T11:59:14.718Z,11.77
2018-09-20T12:01:42.199Z,15.30
2018-09-20T12:04:10.742Z,15.97
2018-09-20T12:06:38.213Z,18.47
2018-09-20T12:09:06.408Z,22.63
2018-09-20T12:11:34.936Z,28.00
2018-09-20T12:14:03.611Z,26.33
2018-09-20T12:16:32.148Z,32.73
2018-09-20T12:18:59.631Z,28.80
2018-09-20T12:21:28.174Z,32.10
2018-09-20T12:23:56.667Z,34.03
2018-09-20T12:26:25.195Z,39.37
2018-09-20T12:28:53.750Z,34.47
2018-09-20T12:31:21.205Z,37.43
2018-09-20T12:33:49.712Z,36.07
2018-09-20T12:36:18.224Z,35.60
2018-09-20T12:38:45.707Z,38.33
2018-09-20T12:41:14.217Z,37.10
2018-09-20T12:43:42.806Z,36.10
2018-09-20T12:46:11.412Z,36.87
2018-09-20T12:48:39.915Z,38.27
2018-09-20T12:51:08.869Z,35.43
2018-09-20T12:53:37.403Z,32.93
2018-09-20T12:56:05.878Z,33.47
2018-09-20T12:58:38.250Z,31.80
2018-09-20T13:01:06.868Z,30.57
2018-09-20T13:03:35.475Z,52.53
2018-09-20T13:06:03.986Z,39.97
2018-09-20T13:08:32.478Z,34.20
2018-09-20T13:11:01.126Z,30.20
2018-09-20T13:13:29.613Z,30.23
2018-09-20T13:15:58.108Z,27.77
2018-09-20T13:18:26.596Z,29.43
2018-09-20T13:20:55.093Z,25.87
2018-09-20T13:23:23.604Z,26.40
2018-09-20T13:25:52.116Z,26.67
2018-09-20T13:28:20.650Z,28.07
2018-09-20T13:30:49.651Z,27.80
2018-09-20T13:33:18.215Z,26.50
2018-09-20T13:35:46.691Z,27.10
2018-09-20T13:38:15.167Z,26.27
2018-09-20T13:40:43.638Z,30.27
2018-09-20T13:43:12.151Z,27.10
2018-09-20T13:45:40.676Z,24.87
2018-09-20T13:48:09.175Z,24.53
2018-09-20T13:50:37.663Z,24.63
2018-09-20T13:53:07.331Z,24.47
2018-09-20T13:55:35.803Z,24.90
2018-09-20T13:58:04.290Z,25.50
2018-09-20T14:00:32.772Z,24.37
2018-09-20T14:03:01.239Z,26.20
2018-09-20T14:05:29.698Z,25.00
2018-09-20T14:07:58.179Z,22.53
2018-09-20T14:10:26.660Z,24.70
2018-09-20T14:12:55.152Z,20.17
2018-09-20T14:15:23.665Z,23.43
2018-09-20T14:17:52.175Z,19.27
2018-09-20T14:20:20.676Z,19.10
2018-09-20T14:22:49.159Z,20.23
2018-09-20T14:25:17.671Z,20.97
2018-09-20T14:27:46.152Z,20.17
2018-09-20T14:30:14.622Z,25.97
2018-09-20T14:32:43.119Z,19.23
2018-09-20T14:35:11.595Z,21.57
2018-09-20T14:37:40.070Z,18.63
2018-09-20T14:40:08.592Z,18.83
2018-09-20T14:42:37.086Z,21.93
2018-09-20T14:45:05.783Z,19.13
2018-09-20T14:47:34.253Z,18.53
2018-09-20T14:50:02.728Z,18.87
2018-09-20T14:52:31.241Z,18.40
2018-09-20T14:54:59.743Z,17.47
2018-09-20T14:57:28.224Z,16.40
2018-09-20T14:59:56.716Z,16.37
2018-09-20T15:02:25.306Z,19.50
2018-09-20T15:04:53.726Z,15.77
2018-09-20T15:07:22.194Z,15.07
2018-09-20T15:09:50.670Z,15.03
2018-09-20T15:12:19.130Z,14.77
2018-09-20T15:14:47.631Z,15.10
2018-09-20T15:17:16.124Z,16.30
2018-09-20T15:19:44.612Z,14.17
2018-09-20T15:22:13.077Z,14.63
2018-09-20T15:24:41.610Z,14.90
2018-09-20T15:27:10.038Z,15.13
2018-09-20T15:29:38.536Z,13.83
2018-09-20T15:32:07.294Z,12.90
2018-09-20T15:34:35.810Z,13.20
2018-09-20T15:37:04.419Z,13.13
2018-09-20T15:39:32.906Z,12.50
2018-09-20T15:42:01.383Z,11.80
2018-09-20T15:44:29.871Z,15.03
2018-09-20T15:46:58.355Z,12.67
2018-09-20T15:49:26.838Z,12.57
2018-09-20T15:51:55.298Z,11.63
2018-09-20T15:54:23.799Z,11.70
2018-09-20T15:56:52.266Z,12.57
2018-09-20T15:59:20.993Z,12.50
2018-09-20T16:01:49.473Z,11.67
2018-09-20T16:04:18.151Z,11.30
2018-09-20T16:06:46.623Z,11.60
2018-09-20T16:09:15.102Z,10.57
2018-09-20T16:11:43.594Z,11.17
2018-09-20T16:14:13.935Z,10.27
2018-09-20T16:16:42.892Z,10.27
2018-09-20T16:19:11.507Z,10.13
2018-09-20T16:21:40.099Z,10.57
2018-09-20T16:24:08.791Z,9.70
2018-09-20T16:26:37.551Z,9.73
2018-09-20T16:29:19.427Z,10.03
2018-09-20T16:32:00.703Z,9.40
2018-09-20T16:34:51.328Z,10.57
2018-09-20T16:37:43.220Z,10.83
2018-09-20T16:40:14.067Z,9.40
2018-09-20T16:42:46.887Z,10.17
2018-09-20T16:45:15.443Z,9.33
2018-09-20T16:47:44.829Z,9.83
2018-09-20T16:50:13.340Z,10.10
2018-09-20T16:52:42.030Z,9.20
2018-09-20T16:55:10.555Z,9.67
2018-09-20T16:57:39.026Z,9.67
2018-09-20T17:00:09.213Z,10.33
2018-09-20T17:02:37.714Z,9.13
2018-09-20T17:05:06.276Z,9.17
2018-09-20T17:07:34.753Z,9.03
2018-09-20T17:10:03.290Z,10.53
2018-09-20T17:12:31.772Z,9.03
2018-09-20T17:15:00.703Z,10.10
2018-09-20T17:17:29.236Z,10.03
2018-09-20T17:19:57.771Z,9.13
2018-09-20T17:22:26.244Z,9.47
2018-09-20T17:24:54.761Z,9.30
2018-09-20T17:27:23.253Z,9.43
2018-09-20T17:29:51.727Z,7.70
2018-09-20T17:32:20.213Z,10.23
2018-09-20T17:34:49.015Z,9.13
2018-09-20T17:37:20.022Z,8.90
2018-09-20T17:39:49.808Z,10.13
2018-09-20T17:42:19.212Z,9.53
2018-09-20T17:44:48.032Z,12.63
2018-09-20T17:47:16.557Z,9.13
2018-09-20T17:49:45.043Z,8.67
2018-09-20T17:52:13.911Z,9.67
2018-09-20T17:54:43.080Z,11.63
2018-09-20T17:57:12.198Z,8.93
2018-09-20T17:59:40.680Z,10.17
2018-09-20T18:02:09.235Z,8.87
2018-09-20T18:04:37.724Z,8.73
2018-09-20T18:07:06.245Z,11.40
2018-09-20T18:09:34.758Z,8.63
2018-09-20T18:12:03.266Z,8.27
2018-09-20T18:14:31.746Z,8.40
2018-09-20T18:17:00.229Z,27.80
2018-09-20T18:19:28.712Z,16.90
2018-09-20T18:21:57.207Z,48.80
2018-09-20T18:24:25.719Z,29.33
2018-09-20T18:26:54.194Z,30.53
2018-09-20T18:29:22.718Z,21.90
2018-09-20T18:31:51.212Z,18.97
2018-09-20T18:34:19.767Z,15.87
2018-09-20T18:36:48.238Z,13.17
2018-09-20T18:39:16.750Z,14.83
2018-09-20T18:41:46.126Z,13.97
2018-09-20T18:44:14.773Z,18.37
2018-09-20T18:46:43.307Z,18.17
2018-09-20T18:49:11.808Z,13.53
2018-09-20T18:51:40.306Z,14.50
2018-09-20T18:54:08.847Z,14.97
2018-09-20T18:56:37.353Z,13.77
2018-09-20T18:59:05.835Z,24.23
2018-09-20T19:01:34.472Z,17.80
2018-09-20T19:04:02.941Z,17.63
2018-09-20T19:06:31.409Z,9.70
2018-09-20T19:08:59.946Z,12.70
2018-09-20T19:11:28.430Z,14.70
2018-09-20T19:13:56.999Z,13.57
2018-09-20T19:16:25.759Z,12.13
2018-09-20T19:18:54.276Z,13.97
2018-09-20T19:21:24.295Z,13.53
2018-09-20T19:23:53.094Z,15.20
2018-09-20T19:26:22.196Z,11.67
2018-09-20T19:28:50.863Z,11.77
2018-09-20T19:31:22.823Z,12.67
2018-09-20T19:33:52.083Z,10.33
2018-09-20T19:36:21.193Z,10.53
2018-09-20T19:38:49.679Z,14.17
2018-09-20T19:41:20.732Z,10.27
2018-09-20T19:43:49.719Z,12.93
2018-09-20T19:46:22.110Z,10.93
2018-09-20T19:48:54.509Z,13.63
2018-09-20T19:51:23.437Z,14.03
2018-09-20T19:53:53.603Z,10.03
2018-09-20T19:56:23.028Z,12.90
2018-09-20T19:58:52.028Z,11.23
2018-09-20T20:01:21.868Z,10.30
2018-09-20T20:03:52.952Z,14.53
2018-09-20T20:06:26.363Z,8.77
2018-09-20T20:08:57.942Z,10.97
2018-09-20T20:11:26.656Z,11.73
2018-09-20T20:13:56.090Z,9.03
2018-09-20T20:16:24.901Z,10.47
2018-09-20T20:18:55.420Z,8.73
2018-09-20T20:21:24.348Z,13.60
2018-09-20T20:23:54.909Z,11.50
2018-09-20T20:26:23.911Z,11.60
2018-09-20T20:28:54.691Z,9.83
2018-09-20T20:31:24.639Z,9.53
2018-09-20T20:33:53.984Z,9.73
2018-09-20T20:36:23.941Z,12.13
2018-09-20T20:38:53.630Z,10.73
2018-09-20T20:41:23.237Z,9.57
2018-09-20T20:43:52.162Z,9.93
2018-09-20T20:46:21.011Z,9.83
2018-09-20T20:48:49.580Z,11.33
2018-09-20T20:51:19.235Z,19.83
2018-09-20T20:53:47.746Z,18.30
2018-09-20T20:56:16.410Z,16.97
2018-09-20T20:58:44.906Z,18.90
2018-09-20T21:01:19.315Z,17.37
2018-09-20T21:03:48.618Z,11.23
2018-09-20T21:06:17.989Z,10.73
2018-09-20T21:08:47.173Z,14.43
2018-09-20T21:11:15.835Z,8.60
2018-09-20T21:13:44.339Z,10.03
2018-09-20T21:16:12.967Z,10.57
2018-09-20T21:18:41.715Z,10.17
2018-09-20T21:21:10.450Z,15.13
2018-09-20T21:23:38.961Z,9.93
2018-09-20T21:26:07.504Z,8.40
2018-09-20T21:28:36.124Z,8.90
2018-09-20T21:31:04.662Z,8.43
2018-09-20T21:33:33.209Z,11.20
2018-09-20T21:36:01.710Z,11.87
2018-09-20T21:38:30.298Z,9.40
2018-09-20T21:40:58.799Z,11.90
2018-09-20T21:43:27.362Z,10.23
2018-09-20T21:45:55.908Z,8.20
2018-09-20T21:48:24.498Z,9.03
2018-09-20T21:50:53.060Z,11.20
2018-09-20T21:53:21.591Z,9.77
2018-09-20T21:55:50.160Z,7.57
2018-09-20T21:58:18.711Z,9.17
2018-09-20T22:00:47.308Z,9.27
2018-09-20T22:03:15.875Z,10.47
2018-09-20T22:05:44.390Z,8.50
2018-09-20T22:08:12.904Z,8.57
2018-09-20T22:10:41.431Z,9.67
2018-09-20T22:13:09.942Z,10.40
2018-09-20T22:15:38.455Z,11.87
2018-09-20T22:18:06.981Z,10.57
2018-09-20T22:20:35.506Z,9.20
2018-09-20T22:23:04.107Z,9.57
2018-09-20T22:25:32.647Z,13.07
2018-09-20T22:28:01.180Z,8.77
2018-09-20T22:30:29.764Z,9.50
2018-09-20T22:32:58.315Z,10.97
2018-09-20T22:35:26.887Z,9.63
2018-09-20T22:37:55.450Z,8.10
2018-09-20T22:40:23.923Z,11.97
2018-09-20T22:42:52.406Z,9.67
2018-09-20T22:45:20.879Z,8.30
2018-09-20T22:47:49.358Z,10.97
2018-09-20T22:50:17.822Z,11.20
2018-09-20T22:52:46.299Z,10.00
2018-09-20T22:55:14.811Z,11.00
2018-09-20T22:57:43.291Z,9.30
2018-09-20T23:00:11.754Z,8.93
2018-09-20T23:02:40.247Z,10.17
2018-09-20T23:05:08.758Z,11.40
2018-09-20T23:07:37.248Z,8.73
2018-09-20T23:10:05.744Z,9.63
2018-09-20T23:12:34.252Z,10.23
2018-09-20T23:15:02.749Z,10.53
2018-09-20T23:17:31.230Z,9.27
2018-09-20T23:19:59.717Z,9.43
2018-09-20T23:22:28.222Z,8.10
2018-09-20T23:24:56.731Z,7.73
2018-09-20T23:27:25.220Z,7.87
2018-09-20T23:29:53.700Z,8.73
2018-09-20T23:32:22.167Z,9.57
2018-09-20T23:34:50.633Z,8.37
2018-09-20T23:37:19.111Z,8.03
2018-09-20T23:39:47.591Z,8.30
2018-09-20T23:42:16.119Z,7.70
2018-09-20T23:44:44.607Z,8.70
2018-09-20T23:47:13.079Z,13.27
2018-09-20T23:49:41.558Z,10.00
2018-09-20T23:52:10.055Z,7.97
2018-09-20T23:54:38.526Z,8.13
2018-09-20T23:57:07.130Z,8.67
2018-09-20T23:59:35.659Z,8.00
